Time;durP1;ratioP1;P1;durP2;ratioP2;P2;SDS_P1;SDS_P2;PMS_P1;PMS_P2;Temp;Humidity;BMP_temperature;BMP_pressure;BME280_temperature;BME280_humidity;BME280_pressure;Samples;Min_cycle;Max_cycle;Signal;HPM_P1;HPM_P2
2021/06/08 00:00:11;;;;;;;8.63;7.82;;;;;;;;;;5090235;28;20118;-76
2021/06/08 00:02:37;;;;;;;11.48;7.97;;;;;;;;;;5088605;28;20568;-79
2021/06/08 00:05:03;;;;;;;9.77;8.60;;;;;;;;;;5091915;28;20031;-74
2021/06/08 00:07:29;;;;;;;9.20;8.30;;;;;;;;;;5091775;28;20035;-74
2021/06/08 00:09:55;;;;;;;8.77;7.85;;;;;;;;;;5092532;28;20069;-76
2021/06/08 00:12:22;;;;;;;8.52;7.70;;;;;;;;;;5093508;28;20473;-74
2021/06/08 00:14:48;;;;;;;10.75;7.90;;;;;;;;;;5092131;28;20357;-75
2021/06/08 00:17:14;;;;;;;7.97;7.28;;;;;;;;;;5092694;28;20024;-74
2021/06/08 00:19:40;;;;;;;9.30;8.32;;;;;;;;;;5092814;28;20035;-75
2021/06/08 00:22:06;;;;;;;7.47;6.88;;;;;;;;;;5094093;28;20051;-74
2021/06/08 00:24:32;;;;;;;8.50;7.80;;;;;;;;;;5092799;28;20031;-74
2021/06/08 00:26:58;;;;;;;8.23;7.53;;;;;;;;;;5093988;28;20040;-74
2021/06/08 00:29:24;;;;;;;11.55;8.65;;;;;;;;;;5093492;28;20024;-74
2021/06/08 00:31:50;;;;;;;8.90;8.00;;;;;;;;;;5093433;28;20024;-74
2021/06/08 00:34:16;;;;;;;9.27;8.32;;;;;;;;;;5094000;28;20028;-74
2021/06/08 00:36:42;;;;;;;9.70;8.80;;;;;;;;;;5094640;28;20429;-75
2021/06/08 00:39:08;;;;;;;10.43;8.32;;;;;;;;;;5095112;28;20028;-74
2021/06/08 00:41:36;;;;;;;8.45;7.65;;;;;;;;;;5095340;28;20024;-75
2021/06/08 00:44:05;;;;;;;9.10;8.30;;;;;;;;;;5095118;28;20055;-74
2021/06/08 00:46:31;;;;;;;9.50;8.60;;;;;;;;;;5094974;28;20047;-75
2021/06/08 00:48:57;;;;;;;11.55;8.05;;;;;;;;;;5094585;28;20493;-74
2021/06/08 00:51:23;;;;;;;9.57;8.57;;;;;;;;;;5095383;28;20024;-75
2021/06/08 00:53:49;;;;;;;10.65;8.43;;;;;;;;;;5095036;28;20024;-74
2021/06/08 00:56:15;;;;;;;12.00;8.80;;;;;;;;;;5094848;28;20028;-75
2021/06/08 00:58:41;;;;;;;9.32;8.32;;;;;;;;;;5094306;28;20028;-74
2021/06/08 01:01:07;;;;;;;10.48;8.77;;;;;;;;;;5094350;28;20031;-75
2021/06/08 01:03:34;;;;;;;10.13;8.65;;;;;;;;;;5095246;28;20024;-75
2021/06/08 01:06:00;;;;;;;9.77;7.47;;;;;;;;;;5094512;28;20032;-75
2021/06/08 01:08:26;;;;;;;14.32;8.43;;;;;;;;;;5094454;28;20066;-84
2021/06/08 01:10:53;;;;;;;9.68;8.77;;;;;;;;;;5094786;28;20023;-75
2021/06/08 01:13:20;;;;;;;11.02;8.52;;;;;;;;;;5094650;28;20110;-75
2021/06/08 01:15:46;;;;;;;9.60;8.25;;;;;;;;;;5093924;28;20028;-75
2021/06/08 01:18:12;;;;;;;11.13;8.02;;;;;;;;;;5094627;28;20024;-74
2021/06/08 01:20:38;;;;;;;9.88;8.88;;;;;;;;;;5094022;28;20025;-75
2021/06/08 01:23:04;;;;;;;9.05;8.15;;;;;;;;;;5094753;28;20070;-74
2021/06/08 01:25:30;;;;;;;8.75;7.85;;;;;;;;;;5094222;28;20020;-75
2021/06/08 01:27:56;;;;;;;9.50;8.57;;;;;;;;;;5094397;28;20055;-74
2021/06/08 01:30:23;;;;;;;8.02;7.32;;;;;;;;;;5093855;28;20462;-74
2021/06/08 01:32:49;;;;;;;9.75;8.75;;;;;;;;;;5094061;28;20066;-75
2021/06/08 01:35:16;;;;;;;9.35;8.55;;;;;;;;;;5094746;28;20024;-75
2021/06/08 01:37:44;;;;;;;9.88;8.93;;;;;;;;;;5094017;28;20024;-75
2021/06/08 01:40:10;;;;;;;9.88;8.27;;;;;;;;;;5094175;28;20107;-74
2021/06/08 01:42:36;;;;;;;9.00;8.07;;;;;;;;;;5094077;28;20509;-75
2021/06/08 01:45:03;;;;;;;9.60;8.65;;;;;;;;;;5093227;28;20030;-75
2021/06/08 01:47:29;;;;;;;8.50;7.80;;;;;;;;;;5094085;28;20393;-75
2021/06/08 01:49:55;;;;;;;10.88;8.07;;;;;;;;;;5093535;28;20101;-74
2021/06/08 01:52:24;;;;;;;10.40;8.02;;;;;;;;;;5094157;28;20111;-75
2021/06/08 01:54:55;;;;;;;7.75;7.07;;;;;;;;;;5093736;28;20031;-75
2021/06/08 01:57:23;;;;;;;12.23;8.70;;;;;;;;;;5093866;28;20032;-75
2021/06/08 02:00:09;;;;;;;8.95;8.05;;;;;;;;;;5093745;28;20024;-75
2021/06/08 02:02:42;;;;;;;9.98;7.60;;;;;;;;;;5078832;28;20069;-74
2021/06/08 02:05:12;;;;;;;11.80;8.00;;;;;;;;;;5093704;28;20020;-75
2021/06/08 02:07:45;;;;;;;9.60;7.88;;;;;;;;;;5093802;28;20072;-74
2021/06/08 02:10:30;;;;;;;9.70;8.75;;;;;;;;;;5093680;28;20103;-74
2021/06/08 02:13:01;;;;;;;9.00;7.95;;;;;;;;;;5079286;28;20020;-75
2021/06/08 02:15:28;;;;;;;8.23;7.43;;;;;;;;;;5093956;28;20056;-75
2021/06/08 02:17:54;;;;;;;9.63;8.82;;;;;;;;;;5093650;28;20039;-74
2021/06/08 02:20:21;;;;;;;9.68;8.70;;;;;;;;;;5093294;28;20028;-76
2021/06/08 02:22:48;;;;;;;13.27;8.15;;;;;;;;;;5093421;28;20078;-75
2021/06/08 02:25:15;;;;;;;9.13;8.23;;;;;;;;;;5094042;28;20028;-75
2021/06/08 02:27:41;;;;;;;7.93;7.20;;;;;;;;;;5093430;28;20036;-74
2021/06/08 02:30:07;;;;;;;9.13;8.32;;;;;;;;;;5093764;28;20062;-75
2021/06/08 02:32:33;;;;;;;7.90;7.20;;;;;;;;;;5093085;28;20386;-75
2021/06/08 02:35:00;;;;;;;10.55;8.32;;;;;;;;;;5093203;28;20024;-75
2021/06/08 02:37:26;;;;;;;13.38;8.15;;;;;;;;;;5093353;28;20058;-75
2021/06/08 02:39:52;;;;;;;8.10;7.50;;;;;;;;;;5093743;28;20092;-75
2021/06/08 02:42:18;;;;;;;9.82;8.75;;;;;;;;;;5093607;28;20029;-75
2021/06/08 02:44:44;;;;;;;8.80;7.95;;;;;;;;;;5093201;28;20029;-75
2021/06/08 02:47:10;;;;;;;9.70;8.80;;;;;;;;;;5093062;28;20063;-75
2021/06/08 02:49:36;;;;;;;10.25;7.90;;;;;;;;;;5092754;28;20051;-75
2021/06/08 02:52:02;;;;;;;8.45;7.47;;;;;;;;;;5092953;28;20020;-75
2021/06/08 02:54:28;;;;;;;9.75;8.68;;;;;;;;;;5093133;28;20366;-75
2021/06/08 02:56:55;;;;;;;9.38;7.82;;;;;;;;;;5096192;28;20024;-75
2021/06/08 02:59:21;;;;;;;9.73;8.80;;;;;;;;;;5097057;28;20097;-74
2021/06/08 03:01:49;;;;;;;8.00;7.25;;;;;;;;;;5096851;28;20027;-75
2021/06/08 03:04:16;;;;;;;8.55;7.68;;;;;;;;;;5096632;28;20024;-75
2021/06/08 03:06:42;;;;;;;9.38;8.45;;;;;;;;;;5097008;28;20036;-75
2021/06/08 03:09:11;;;;;;;13.00;7.88;;;;;;;;;;5096999;28;20403;-74
2021/06/08 03:11:39;;;;;;;8.15;7.47;;;;;;;;;;5096752;28;20024;-74
2021/06/08 03:14:08;;;;;;;9.13;8.18;;;;;;;;;;5097155;28;20028;-74
2021/06/08 03:16:35;;;;;;;8.93;8.02;;;;;;;;;;5096880;28;20032;-75
2021/06/08 03:19:03;;;;;;;8.35;7.65;;;;;;;;;;5096580;28;20047;-75
2021/06/08 03:21:31;;;;;;;9.02;7.65;;;;;;;;;;5097032;28;20020;-74
2021/06/08 03:23:57;;;;;;;8.10;7.32;;;;;;;;;;5097065;28;20023;-75
2021/06/08 03:26:23;;;;;;;8.27;7.43;;;;;;;;;;5096632;28;20492;-74
2021/06/08 03:28:50;;;;;;;10.02;7.95;;;;;;;;;;5096413;28;20028;-74
2021/06/08 03:31:16;;;;;;;8.93;7.75;;;;;;;;;;5096349;28;20028;-75
2021/06/08 03:33:42;;;;;;;10.40;8.75;;;;;;;;;;5096468;28;20059;-75
2021/06/08 03:36:09;;;;;;;8.73;7.95;;;;;;;;;;5096340;28;20478;-75
2021/06/08 03:38:35;;;;;;;9.20;8.32;;;;;;;;;;5096050;28;20055;-75
2021/06/08 03:41:01;;;;;;;8.35;7.65;;;;;;;;;;5095931;28;20469;-75
2021/06/08 03:43:27;;;;;;;9.55;8.23;;;;;;;;;;5096493;28;20024;-74
2021/06/08 03:45:53;;;;;;;9.90;8.10;;;;;;;;;;5095949;28;20036;-75
2021/06/08 03:48:19;;;;;;;9.57;8.63;;;;;;;;;;5095966;28;20056;-75
2021/06/08 03:50:46;;;;;;;10.40;7.10;;;;;;;;;;5096233;28;20085;-74
2021/06/08 03:53:12;;;;;;;9.60;7.97;;;;;;;;;;5096631;28;20516;-74
2021/06/08 03:55:38;;;;;;;10.27;8.27;;;;;;;;;;5096358;28;20024;-74
2021/06/08 03:58:11;;;;;;;8.73;7.95;;;;;;;;;;5096311;28;20024;-74
2021/06/08 04:00:37;;;;;;;13.65;8.13;;;;;;;;;;5095746;28;20020;-75
2021/06/08 04:03:05;;;;;;;10.88;8.07;;;;;;;;;;5095602;28;20035;-74
2021/06/08 04:05:31;;;;;;;8.63;7.88;;;;;;;;;;5095839;28;20021;-74
2021/06/08 04:07:57;;;;;;;11.07;9.65;;;;;;;;;;5095045;28;20032;-74
2021/06/08 04:10:23;;;;;;;8.82;8.13;;;;;;;;;;5095720;28;20031;-74
2021/06/08 04:12:49;;;;;;;9.32;8.43;;;;;;;;;;5095305;28;20020;-74
2021/06/08 04:15:16;;;;;;;8.05;7.25;;;;;;;;;;5095205;28;20066;-75
2021/06/08 04:17:42;;;;;;;10.50;8.40;;;;;;;;;;5095586;28;20058;-74
2021/06/08 04:20:09;;;;;;;14.00;8.18;;;;;;;;;;5095812;28;20028;-74
2021/06/08 04:22:35;;;;;;;9.13;8.25;;;;;;;;;;5095502;28;20085;-74
2021/06/08 04:25:01;;;;;;;8.13;7.38;;;;;;;;;;5095342;28;20359;-74
2021/06/08 04:27:28;;;;;;;9.55;7.93;;;;;;;;;;5095357;28;20071;-74
2021/06/08 04:29:54;;;;;;;8.55;7.85;;;;;;;;;;5095099;28;20024;-75
2021/06/08 04:32:20;;;;;;;13.40;8.70;;;;;;;;;;5094923;28;20020;-74
2021/06/08 04:34:48;;;;;;;9.70;8.77;;;;;;;;;;5095023;28;20024;-75
2021/06/08 04:37:14;;;;;;;8.50;7.68;;;;;;;;;;5095518;28;20115;-73
2021/06/08 04:39:40;;;;;;;11.95;7.45;;;;;;;;;;5095291;28;20027;-73
2021/06/08 04:42:07;;;;;;;10.02;8.23;;;;;;;;;;5094875;28;20110;-73
2021/06/08 04:44:33;;;;;;;9.70;8.80;;;;;;;;;;5094553;28;20026;-73
2021/06/08 04:46:59;;;;;;;8.60;7.80;;;;;;;;;;5094747;28;20036;-71
2021/06/08 04:49:25;;;;;;;9.05;8.25;;;;;;;;;;5094690;28;20097;-71
2021/06/08 04:51:51;;;;;;;9.38;8.25;;;;;;;;;;5094967;28;20478;-71
2021/06/08 04:54:24;;;;;;;10.90;7.90;;;;;;;;;;5094618;28;20024;-71
2021/06/08 04:56:50;;;;;;;9.38;8.57;;;;;;;;;;5094660;28;20106;-72
2021/06/08 04:59:17;;;;;;;10.23;8.20;;;;;;;;;;5092902;28;20035;-72
2021/06/08 05:01:43;;;;;;;33.22;8.73;;;;;;;;;;5095047;28;20028;-71
2021/06/08 05:04:11;;;;;;;8.95;8.18;;;;;;;;;;5094470;28;20374;-73
2021/06/08 05:06:38;;;;;;;9.73;8.05;;;;;;;;;;5093556;28;20461;-72
2021/06/08 05:09:05;;;;;;;10.85;8.93;;;;;;;;;;5094309;28;20024;-71
2021/06/08 05:11:35;;;;;;;15.02;9.23;;;;;;;;;;5094198;28;20024;-74
2021/06/08 05:14:01;;;;;;;15.02;7.78;;;;;;;;;;5094249;28;20040;-73
2021/06/08 05:16:28;;;;;;;10.15;8.40;;;;;;;;;;5093410;28;20069;-74
2021/06/08 05:18:54;;;;;;;20.63;12.52;;;;;;;;;;5093622;28;20049;-73
2021/06/08 05:21:20;;;;;;;14.85;11.93;;;;;;;;;;5094128;28;20366;-73
2021/06/08 05:23:48;;;;;;;30.52;14.90;;;;;;;;;;5094453;28;20020;-73
2021/06/08 05:26:14;;;;;;;20.75;12.98;;;;;;;;;;5093537;28;20379;-74
2021/06/08 05:28:40;;;;;;;24.10;14.30;;;;;;;;;;5093363;28;20020;-73
2021/06/08 05:31:06;;;;;;;17.70;12.75;;;;;;;;;;5094147;28;20031;-72
2021/06/08 05:33:32;;;;;;;17.50;12.43;;;;;;;;;;5094430;28;20127;-72
2021/06/08 05:35:58;;;;;;;13.05;11.35;;;;;;;;;;5093882;28;20032;-73
2021/06/08 05:38:43;;;;;;;21.17;12.90;;;;;;;;;;5094135;28;20042;-72
2021/06/08 05:41:10;;;;;;;27.27;13.20;;;;;;;;;;5093807;28;20028;-73
2021/06/08 05:43:37;;;;;;;20.05;12.75;;;;;;;;;;5094459;28;20085;-73
2021/06/08 05:46:04;;;;;;;20.75;12.75;;;;;;;;;;5093769;28;20557;-73
2021/06/08 05:48:30;;;;;;;18.25;12.15;;;;;;;;;;5093719;28;20028;-74
2021/06/08 05:50:56;;;;;;;17.75;11.88;;;;;;;;;;5093529;28;20055;-73
2021/06/08 05:53:23;;;;;;;16.58;11.90;;;;;;;;;;5093879;28;20477;-74
2021/06/08 05:55:50;;;;;;;17.77;11.40;;;;;;;;;;5093447;28;20028;-72
2021/06/08 05:58:16;;;;;;;16.60;12.63;;;;;;;;;;5076030;28;20024;-73
2021/06/08 06:00:43;;;;;;;16.40;11.45;;;;;;;;;;5093583;28;20467;-73
2021/06/08 06:03:09;;;;;;;20.33;11.85;;;;;;;;;;5093615;28;20069;-73
2021/06/08 06:05:36;;;;;;;13.48;10.38;;;;;;;;;;5093383;28;20024;-73
2021/06/08 06:08:03;;;;;;;17.15;11.23;;;;;;;;;;5093454;28;20055;-73
2021/06/08 06:10:29;;;;;;;13.30;10.30;;;;;;;;;;5092907;28;20020;-73
2021/06/08 06:12:55;;;;;;;13.57;10.57;;;;;;;;;;5094326;28;20411;-72
2021/06/08 06:15:22;;;;;;;21.95;11.88;;;;;;;;;;5093653;28;20024;-73
2021/06/08 06:17:48;;;;;;;14.95;11.07;;;;;;;;;;5093560;28;20028;-70
2021/06/08 06:20:14;;;;;;;12.95;10.52;;;;;;;;;;5093546;28;20068;-74
2021/06/08 06:22:41;;;;;;;17.98;10.60;;;;;;;;;;5093141;28;20024;-73
2021/06/08 06:25:08;;;;;;;15.52;9.90;;;;;;;;;;5093401;28;20028;-73
2021/06/08 06:27:35;;;;;;;15.57;9.25;;;;;;;;;;5093456;28;20048;-73
2021/06/08 06:30:01;;;;;;;13.55;9.25;;;;;;;;;;5093679;28;20024;-73
2021/06/08 06:32:27;;;;;;;24.27;9.68;;;;;;;;;;5096928;28;20035;-74
2021/06/08 06:34:53;;;;;;;11.35;9.07;;;;;;;;;;5097519;28;20031;-73
2021/06/08 06:37:20;;;;;;;13.40;8.77;;;;;;;;;;5097408;28;20066;-73
2021/06/08 06:39:47;;;;;;;13.88;10.07;;;;;;;;;;5097328;28;20034;-73
2021/06/08 06:42:13;;;;;;;14.05;9.48;;;;;;;;;;5097391;28;20016;-73
2021/06/08 06:44:40;;;;;;;13.57;9.13;;;;;;;;;;5097256;28;20074;-73
2021/06/08 06:47:06;;;;;;;13.48;10.05;;;;;;;;;;5097330;28;20032;-73
2021/06/08 06:49:33;;;;;;;11.52;9.13;;;;;;;;;;5097450;28;20086;-73
2021/06/08 06:51:59;;;;;;;9.50;8.05;;;;;;;;;;5097386;28;20020;-73
2021/06/08 06:54:25;;;;;;;12.52;8.98;;;;;;;;;;5096781;28;20110;-73
2021/06/08 06:56:51;;;;;;;10.15;7.97;;;;;;;;;;5096723;28;20066;-73
2021/06/08 06:59:17;;;;;;;10.07;7.97;;;;;;;;;;5097048;28;20016;-73
2021/06/08 07:01:43;;;;;;;11.00;7.75;;;;;;;;;;5096763;28;20024;-71
2021/06/08 07:04:10;;;;;;;11.73;9.30;;;;;;;;;;5097032;28;20028;-71
2021/06/08 07:06:36;;;;;;;10.25;9.15;;;;;;;;;;5096608;28;20032;-70
2021/06/08 07:09:02;;;;;;;11.70;9.30;;;;;;;;;;5096459;28;20024;-71
2021/06/08 07:11:29;;;;;;;8.63;7.93;;;;;;;;;;5097263;28;20107;-71
2021/06/08 07:13:55;;;;;;;9.82;8.90;;;;;;;;;;5096850;28;20024;-70
2021/06/08 07:16:23;;;;;;;21.45;10.32;;;;;;;;;;5096483;28;20097;-70
2021/06/08 07:18:49;;;;;;;15.40;9.15;;;;;;;;;;5096249;28;20059;-70
2021/06/08 07:21:15;;;;;;;10.48;9.40;;;;;;;;;;5096670;28;20117;-70
2021/06/08 07:23:42;;;;;;;9.77;8.73;;;;;;;;;;5096205;28;20032;-71
2021/06/08 07:26:10;;;;;;;9.93;8.63;;;;;;;;;;5096494;28;20036;-71
2021/06/08 07:28:36;;;;;;;16.45;9.75;;;;;;;;;;5096165;28;20070;-70
2021/06/08 07:31:03;;;;;;;15.68;8.77;;;;;;;;;;5096111;28;20024;-70
2021/06/08 07:33:49;;;;;;;12.40;8.88;;;;;;;;;;5096489;28;20028;-70
2021/06/08 07:36:18;;;;;;;24.15;8.77;;;;;;;;;;5080957;28;20024;-70
2021/06/08 07:38:47;;;;;;;11.68;9.05;;;;;;;;;;5095960;28;20024;-70
2021/06/08 07:41:14;;;;;;;9.77;7.97;;;;;;;;;;5096431;28;20073;-71
2021/06/08 07:43:45;;;;;;;12.70;8.48;;;;;;;;;;5095311;28;20393;-70
2021/06/08 07:46:13;;;;;;;28.25;8.38;;;;;;;;;;5095846;28;20473;-70
2021/06/08 07:48:42;;;;;;;9.60;8.73;;;;;;;;;;5094854;28;20016;-72
2021/06/08 07:51:09;;;;;;;12.10;8.75;;;;;;;;;;5095105;28;20020;-70
2021/06/08 07:53:35;;;;;;;12.70;8.93;;;;;;;;;;5096404;28;20154;-70
2021/06/08 07:56:01;;;;;;;13.80;9.18;;;;;;;;;;5096217;28;20377;-70
2021/06/08 07:58:27;;;;;;;10.00;8.93;;;;;;;;;;5095527;28;20025;-71
2021/06/08 08:00:56;;;;;;;14.63;8.75;;;;;;;;;;5095770;28;20103;-71
2021/06/08 08:03:25;;;;;;;9.90;8.45;;;;;;;;;;5095617;28;20461;-70
2021/06/08 08:05:51;;;;;;;11.73;8.23;;;;;;;;;;5096011;28;20032;-70
2021/06/08 08:08:19;;;;;;;14.02;8.98;;;;;;;;;;5095943;28;20028;-70
2021/06/08 08:10:45;;;;;;;9.55;8.30;;;;;;;;;;5095430;28;20020;-70
2021/06/08 08:13:11;;;;;;;9.55;8.55;;;;;;;;;;5095925;28;20020;-70
2021/06/08 08:15:38;;;;;;;14.57;8.57;;;;;;;;;;5095472;28;20028;-73
2021/06/08 08:18:04;;;;;;;14.65;8.65;;;;;;;;;;5095381;28;20346;-73
2021/06/08 08:20:41;;;;;;;10.10;7.82;;;;;;;;;;5095049;28;20030;-74
2021/06/08 08:23:08;;;;;;;14.05;8.52;;;;;;;;;;5094645;28;20060;-72
2021/06/08 08:25:34;;;;;;;16.63;8.60;;;;;;;;;;5094511;28;20024;-73
2021/06/08 08:28:00;;;;;;;10.88;8.10;;;;;;;;;;5095260;28;20064;-73
2021/06/08 08:30:26;;;;;;;17.95;8.50;;;;;;;;;;5095261;28;20021;-77
2021/06/08 08:32:52;;;;;;;14.32;7.43;;;;;;;;;;5096586;28;20124;-73
2021/06/08 08:35:18;;;;;;;9.07;7.60;;;;;;;;;;5094423;28;20024;-71
2021/06/08 08:37:44;;;;;;;9.40;7.43;;;;;;;;;;5094811;28;20427;-75
2021/06/08 08:40:10;;;;;;;21.48;8.57;;;;;;;;;;5094517;28;20024;-74
2021/06/08 08:42:37;;;;;;;8.40;7.60;;;;;;;;;;5094229;28;20485;-72
2021/06/08 08:45:03;;;;;;;7.30;6.60;;;;;;;;;;5094587;28;20051;-73
2021/06/08 08:47:30;;;;;;;8.70;7.05;;;;;;;;;;5094300;28;20465;-74
2021/06/08 08:49:56;;;;;;;10.07;7.13;;;;;;;;;;5094457;28;20059;-71
2021/06/08 08:52:22;;;;;;;9.85;7.20;;;;;;;;;;5094714;28;20024;-72
2021/06/08 08:54:48;;;;;;;13.48;8.68;;;;;;;;;;5094532;28;20375;-71
2021/06/08 08:57:17;;;;;;;11.40;7.55;;;;;;;;;;5095021;28;20039;-72
2021/06/08 08:59:43;;;;;;;14.02;7.72;;;;;;;;;;5076609;28;20122;-72
2021/06/08 09:02:09;;;;;;;10.73;7.18;;;;;;;;;;5094963;28;20424;-71
2021/06/08 09:04:35;;;;;;;7.93;7.13;;;;;;;;;;5094756;28;20031;-74
2021/06/08 09:07:01;;;;;;;8.27;7.47;;;;;;;;;;5094828;28;20082;-74
2021/06/08 09:09:27;;;;;;;9.45;7.57;;;;;;;;;;5094468;28;20028;-71
2021/06/08 09:11:53;;;;;;;13.88;6.82;;;;;;;;;;5095064;28;20483;-72
2021/06/08 09:14:20;;;;;;;10.10;7.32;;;;;;;;;;5094593;28;20035;-73
2021/06/08 09:16:46;;;;;;;10.50;7.63;;;;;;;;;;5094505;28;20393;-73
2021/06/08 09:19:12;;;;;;;8.95;6.72;;;;;;;;;;5094236;28;20032;-75
2021/06/08 09:21:39;;;;;;;7.85;6.97;;;;;;;;;;5094639;28;20474;-74
2021/06/08 09:24:25;;;;;;;12.90;6.97;;;;;;;;;;5094836;28;20032;-75
2021/06/08 09:26:56;;;;;;;8.90;7.20;;;;;;;;;;5080528;28;20374;-72
2021/06/08 09:29:27;;;;;;;7.60;7.00;;;;;;;;;;5095233;28;20508;-72
2021/06/08 09:32:13;;;;;;;11.43;7.80;;;;;;;;;;5094941;28;20032;-73
2021/06/08 09:34:40;;;;;;;8.82;7.95;;;;;;;;;;5079171;28;20254;-74
2021/06/08 09:37:06;;;;;;;9.95;7.97;;;;;;;;;;5094754;28;20081;-72
2021/06/08 09:39:32;;;;;;;8.70;7.88;;;;;;;;;;5093581;28;20024;-72
2021/06/08 09:41:59;;;;;;;7.85;6.97;;;;;;;;;;5095744;28;20028;-73
2021/06/08 09:44:25;;;;;;;8.73;7.82;;;;;;;;;;5095637;28;20032;-76
2021/06/08 09:46:53;;;;;;;9.48;8.05;;;;;;;;;;5095889;28;20036;-73
2021/06/08 09:49:20;;;;;;;9.13;8.35;;;;;;;;;;5094113;28;20500;-70
2021/06/08 09:52:06;;;;;;;9.80;8.63;;;;;;;;;;5094295;28;20545;-70
2021/06/08 09:54:34;;;;;;;16.33;8.43;;;;;;;;;;5093978;28;20035;-72
2021/06/08 09:57:20;;;;;;;22.10;8.15;;;;;;;;;;5094269;28;20043;-72
2021/06/08 09:59:47;;;;;;;9.50;6.88;;;;;;;;;;5079008;28;20028;-72
2021/06/08 10:02:36;;;;;;;15.38;8.35;;;;;;;;;;5093252;28;20034;-75
2021/06/08 10:05:22;;;;;;;9.45;7.60;;;;;;;;;;5078807;28;20465;-72
2021/06/08 10:07:48;;;;;;;8.95;6.78;;;;;;;;;;5078837;28;20024;-71
2021/06/08 10:10:16;;;;;;;10.27;8.73;;;;;;;;;;5094190;28;20035;-73
2021/06/08 10:13:02;;;;;;;10.32;7.57;;;;;;;;;;5093329;28;20028;-72
2021/06/08 10:15:29;;;;;;;9.05;8.15;;;;;;;;;;5079479;28;20485;-71
2021/06/08 10:17:57;;;;;;;7.88;7.28;;;;;;;;;;5094045;28;20024;-74
2021/06/08 10:20:24;;;;;;;9.60;6.95;;;;;;;;;;5094004;28;20028;-75
2021/06/08 10:22:50;;;;;;;9.02;8.10;;;;;;;;;;5093266;28;20024;-71
2021/06/08 10:25:17;;;;;;;10.68;7.22;;;;;;;;;;5093719;28;20119;-74
2021/06/08 10:27:43;;;;;;;9.18;7.43;;;;;;;;;;5093403;28;20032;-72
2021/06/08 10:30:09;;;;;;;8.00;6.82;;;;;;;;;;5095130;28;20031;-74
2021/06/08 10:32:35;;;;;;;8.15;7.28;;;;;;;;;;5093630;28;20030;-73
2021/06/08 10:35:02;;;;;;;14.75;6.78;;;;;;;;;;5093972;28;20477;-73
2021/06/08 10:37:28;;;;;;;14.63;7.35;;;;;;;;;;5093555;28;20086;-73
2021/06/08 10:39:55;;;;;;;8.38;7.38;;;;;;;;;;5093307;28;20024;-73
2021/06/08 10:42:22;;;;;;;10.25;6.63;;;;;;;;;;5093402;28;20028;-73
2021/06/08 10:44:48;;;;;;;7.88;7.18;;;;;;;;;;5093025;28;20028;-73
2021/06/08 10:47:33;;;;;;;7.90;7.15;;;;;;;;;;5092771;28;20086;-76
2021/06/08 10:49:59;;;;;;;6.43;5.78;;;;;;;;;;5093123;28;20044;-73
2021/06/08 10:52:26;;;;;;;8.25;6.97;;;;;;;;;;5093453;28;20373;-72
2021/06/08 10:54:54;;;;;;;7.57;6.80;;;;;;;;;;5093129;28;20116;-73
2021/06/08 10:57:20;;;;;;;10.88;6.88;;;;;;;;;;5093937;28;20024;-72
2021/06/08 10:59:47;;;;;;;8.18;6.45;;;;;;;;;;5093657;28;20024;-76
2021/06/08 11:02:14;;;;;;;10.25;6.70;;;;;;;;;;5093754;28;20028;-75
2021/06/08 11:04:48;;;;;;;9.85;6.57;;;;;;;;;;5093629;28;20020;-76
2021/06/08 11:07:14;;;;;;;15.60;6.18;;;;;;;;;;5093356;28;20039;-76
2021/06/08 11:09:40;;;;;;;7.97;6.30;;;;;;;;;;5093601;28;20036;-76
2021/06/08 11:12:27;;;;;;;9.65;6.35;;;;;;;;;;5093921;28;20378;-76
2021/06/08 11:14:55;;;;;;;7.57;6.18;;;;;;;;;;5079266;28;20122;-75
2021/06/08 11:17:41;;;;;;;7.80;6.80;;;;;;;;;;5094926;28;20028;-75
2021/06/08 11:20:18;;;;;;;8.73;7.47;;;;;;;;;;5082344;28;20035;-75
2021/06/08 11:22:52;;;;;;;7.53;6.78;;;;;;;;;;5096935;28;20084;-76
2021/06/08 11:25:38;;;;;;;8.43;6.18;;;;;;;;;;5097171;28;20368;-76
2021/06/08 11:28:07;;;;;;;7.10;6.25;;;;;;;;;;5081679;28;20044;-76
2021/06/08 11:30:35;;;;;;;10.65;6.25;;;;;;;;;;5096490;28;20024;-76
2021/06/08 11:33:03;;;;;;;9.98;6.30;;;;;;;;;;5096882;28;20092;-74
2021/06/08 11:35:33;;;;;;;8.00;6.97;;;;;;;;;;5096537;28;20503;-76
2021/06/08 11:38:01;;;;;;;8.85;7.32;;;;;;;;;;5096851;28;20461;-77
2021/06/08 11:40:45;;;;;;;7.55;6.28;;;;;;;;;;5096328;28;20465;-77
2021/06/08 11:43:31;;;;;;;9.20;6.88;;;;;;;;;;5097197;28;20024;-76
2021/06/08 11:46:02;;;;;;;22.15;6.55;;;;;;;;;;5081846;28;20031;-76
2021/06/08 11:48:35;;;;;;;7.22;5.97;;;;;;;;;;5096726;28;20024;-78
2021/06/08 11:51:05;;;;;;;7.72;6.57;;;;;;;;;;5096424;28;20036;-78
2021/06/08 11:53:39;;;;;;;6.75;6.15;;;;;;;;;;5096239;28;20032;-76
2021/06/08 11:56:09;;;;;;;18.77;6.00;;;;;;;;;;5096701;28;20024;-76
2021/06/08 11:58:36;;;;;;;11.00;6.93;;;;;;;;;;5096148;28;20032;-76
2021/06/08 12:01:04;;;;;;;10.70;6.50;;;;;;;;;;5095962;28;20074;-77
2021/06/08 12:03:32;;;;;;;8.30;6.05;;;;;;;;;;5096389;28;20030;-75
2021/06/08 12:05:58;;;;;;;11.10;6.25;;;;;;;;;;5095839;28;20035;-77
2021/06/08 12:08:25;;;;;;;6.93;6.10;;;;;;;;;;5095652;28;20047;-73
2021/06/08 12:10:53;;;;;;;8.20;5.70;;;;;;;;;;5096080;28;20077;-74
2021/06/08 12:13:20;;;;;;;5.88;5.28;;;;;;;;;;5096458;28;20024;-74
2021/06/08 12:15:48;;;;;;;12.77;5.70;;;;;;;;;;5095759;28;20024;-72
2021/06/08 12:18:16;;;;;;;6.57;5.75;;;;;;;;;;5095143;28;20096;-74
2021/06/08 12:20:43;;;;;;;8.75;5.85;;;;;;;;;;5095548;28;20051;-75
2021/06/08 12:23:09;;;;;;;6.03;5.53;;;;;;;;;;5096256;28;20020;-72
2021/06/08 12:25:35;;;;;;;9.02;6.13;;;;;;;;;;5095589;28;20023;-76
2021/06/08 12:28:01;;;;;;;16.52;5.43;;;;;;;;;;5095944;28;20133;-76
2021/06/08 12:30:28;;;;;;;6.57;5.65;;;;;;;;;;5095216;28;20016;-76
2021/06/08 12:33:02;;;;;;;7.30;5.93;;;;;;;;;;5098285;28;20035;-80
2021/06/08 12:35:34;;;;;;;7.05;6.15;;;;;;;;;;5103779;28;20020;-76
2021/06/08 12:38:21;;;;;;;25.45;6.82;;;;;;;;;;5102933;28;20055;-71
2021/06/08 12:41:04;;;;;;;6.40;5.22;;;;;;;;;;5089376;28;20023;-72
2021/06/08 12:43:40;;;;;;;7.25;5.68;;;;;;;;;;5102834;28;20024;-71
2021/06/08 12:46:06;;;;;;;6.18;5.68;;;;;;;;;;5102644;28;20016;-72
2021/06/08 12:48:32;;;;;;;6.32;5.72;;;;;;;;;;5103844;28;20031;-72
2021/06/08 12:50:58;;;;;;;6.85;6.25;;;;;;;;;;5101644;28;20074;-71
2021/06/08 12:53:26;;;;;;;7.65;6.13;;;;;;;;;;5108314;28;20023;-71
2021/06/08 12:55:53;;;;;;;7.22;5.07;;;;;;;;;;5114773;28;20540;-72
2021/06/08 12:58:19;;;;;;;6.43;5.85;;;;;;;;;;5115101;28;20480;-71
2021/06/08 13:00:45;;;;;;;6.25;5.82;;;;;;;;;;5114723;28;20065;-71
2021/06/08 13:03:11;;;;;;;6.78;6.07;;;;;;;;;;5115385;28;20098;-71
2021/06/08 13:05:37;;;;;;;6.22;5.72;;;;;;;;;;5111278;28;20165;-72
2021/06/08 13:08:04;;;;;;;5.78;5.28;;;;;;;;;;5104029;28;20024;-72
2021/06/08 13:10:34;;;;;;;6.25;5.63;;;;;;;;;;5103249;28;20020;-73
2021/06/08 13:13:16;;;;;;;6.60;5.70;;;;;;;;;;5102335;28;20468;-72
2021/06/08 13:15:43;;;;;;;5.68;5.28;;;;;;;;;;5102409;28;20067;-72
2021/06/08 13:18:11;;;;;;;6.53;5.93;;;;;;;;;;5103077;28;20030;-72
2021/06/08 13:20:40;;;;;;;7.18;6.07;;;;;;;;;;5104110;28;20075;-73
2021/06/08 13:23:07;;;;;;;6.40;5.90;;;;;;;;;;5102715;28;20031;-73
2021/06/08 13:25:33;;;;;;;14.55;6.70;;;;;;;;;;5102712;28;20023;-72
2021/06/08 13:28:00;;;;;;;6.22;5.72;;;;;;;;;;5103967;28;20092;-71
2021/06/08 13:30:27;;;;;;;7.22;6.22;;;;;;;;;;5104000;28;20024;-72
2021/06/08 13:32:55;;;;;;;6.50;6.00;;;;;;;;;;5103680;28;20020;-72
2021/06/08 13:35:22;;;;;;;7.03;5.72;;;;;;;;;;5101874;28;20020;-73
2021/06/08 13:37:55;;;;;;;6.63;6.03;;;;;;;;;;5102562;28;20031;-73
2021/06/08 13:40:22;;;;;;;9.68;6.85;;;;;;;;;;5102876;28;20073;-73
2021/06/08 13:42:56;;;;;;;5.80;5.30;;;;;;;;;;5102901;28;20020;-76
2021/06/08 13:45:30;;;;;;;8.75;6.10;;;;;;;;;;5102201;28;20101;-76
2021/06/08 13:47:57;;;;;;;6.78;6.20;;;;;;;;;;5101605;28;20586;-76
2021/06/08 13:50:24;;;;;;;8.73;6.25;;;;;;;;;;5103962;28;20051;-76
2021/06/08 13:53:01;;;;;;;8.00;6.43;;;;;;;;;;5113947;28;20483;-74
2021/06/08 13:55:29;;;;;;;8.55;5.82;;;;;;;;;;5115004;28;20035;-76
2021/06/08 14:01:05;;;;;;;6.68;6.05;;;;;;;;;;5099219;28;20030;-75
2021/06/08 14:03:31;;;;;;;7.55;6.80;;;;;;;;;;5114818;28;20027;-76
2021/06/08 14:06:14;;;;;;;11.85;6.63;;;;;;;;;;5113972;28;20084;-73
2021/06/08 14:08:40;;;;;;;8.65;5.72;;;;;;;;;;5114359;28;20026;-73
2021/06/08 14:11:06;;;;;;;12.32;6.63;;;;;;;;;;5114520;28;20051;-84
2021/06/08 14:13:35;;;;;;;9.55;6.20;;;;;;;;;;5116210;28;20031;-78
2021/06/08 14:16:01;;;;;;;7.03;6.47;;;;;;;;;;5117033;28;20023;-77
2021/06/08 14:18:27;;;;;;;11.90;6.95;;;;;;;;;;5116865;28;20024;-80
2021/06/08 14:20:53;;;;;;;8.68;6.60;;;;;;;;;;5116858;28;20055;-74
2021/06/08 14:23:19;;;;;;;10.68;6.97;;;;;;;;;;5116639;28;20032;-74
2021/06/08 14:25:45;;;;;;;10.35;6.85;;;;;;;;;;5115797;28;20020;-74
2021/06/08 14:28:11;;;;;;;7.88;6.20;;;;;;;;;;5115408;28;20023;-77
2021/06/08 14:30:37;;;;;;;6.28;5.70;;;;;;;;;;5116770;28;20028;-75
2021/06/08 14:33:04;;;;;;;7.32;6.68;;;;;;;;;;5116164;28;20484;-72
2021/06/08 14:35:30;;;;;;;7.03;6.15;;;;;;;;;;5116338;28;20401;-80
2021/06/08 14:37:56;;;;;;;8.73;6.47;;;;;;;;;;5115580;28;20045;-74
2021/06/08 14:40:22;;;;;;;7.47;6.60;;;;;;;;;;5114682;28;20023;-76
2021/06/08 14:42:50;;;;;;;16.42;7.45;;;;;;;;;;5115750;28;20452;-76